sensor_id;sensor_type;location;lat;lon;timestamp;temperature;humidity
78536;SHT31;67829;51.968;5.684;2023-12-14T00:02:18;9.6;70.6
78536;SHT31;67829;51.968;5.684;2023-12-14T00:04:46;9.6;70.7
78536;SHT31;67829;51.968;5.684;2023-12-14T00:07:15;9.5;71.0
78536;SHT31;67829;51.968;5.684;2023-12-14T00:09:44;9.5;71.1
78536;SHT31;67829;51.968;5.684;2023-12-14T00:12:14;9.5;71.6
78536;SHT31;67829;51.968;5.684;2023-12-14T00:14:42;9.5;71.6
78536;SHT31;67829;51.968;5.684;2023-12-14T00:17:11;9.4;71.6
78536;SHT31;67829;51.968;5.684;2023-12-14T00:19:39;9.4;71.6
78536;SHT31;67829;51.968;5.684;2023-12-14T00:22:08;9.4;71.9
78536;SHT31;67829;51.968;5.684;2023-12-14T00:24:37;9.4;72.0
78536;SHT31;67829;51.968;5.684;2023-12-14T00:27:06;9.4;72.4
78536;SHT31;67829;51.968;5.684;2023-12-14T00:29:34;9.4;71.9
78536;SHT31;67829;51.968;5.684;2023-12-14T00:32:03;9.4;72.2
78536;SHT31;67829;51.968;5.684;2023-12-14T00:34:32;9.4;72.3
78536;SHT31;67829;51.968;5.684;2023-12-14T00:37:01;9.4;71.9
78536;SHT31;67829;51.968;5.684;2023-12-14T00:39:30;9.4;71.7
78536;SHT31;67829;51.968;5.684;2023-12-14T00:41:58;9.3;71.8
78536;SHT31;67829;51.968;5.684;2023-12-14T00:44:26;9.3;71.7
78536;SHT31;67829;51.968;5.684;2023-12-14T00:46:55;9.3;71.8
78536;SHT31;67829;51.968;5.684;2023-12-14T00:49:25;9.3;71.7
78536;SHT31;67829;51.968;5.684;2023-12-14T00:51:55;9.3;71.6
78536;SHT31;67829;51.968;5.684;2023-12-14T00:54:24;9.2;71.6
78536;SHT31;67829;51.968;5.684;2023-12-14T00:56:53;9.2;71.9
78536;SHT31;67829;51.968;5.684;2023-12-14T00:59:21;9.2;72.1
78536;SHT31;67829;51.968;5.684;2023-12-14T01:01:50;9.2;71.7
78536;SHT31;67829;51.968;5.684;2023-12-14T01:04:18;9.2;71.9
78536;SHT31;67829;51.968;5.684;2023-12-14T01:06:46;9.2;71.9
78536;SHT31;67829;51.968;5.684;2023-12-14T01:09:15;9.2;71.5
78536;SHT31;67829;51.968;5.684;2023-12-14T01:11:43;9.1;71.0
78536;SHT31;67829;51.968;5.684;2023-12-14T01:14:12;9.1;70.7
78536;SHT31;67829;51.968;5.684;2023-12-14T01:16:41;9.1;70.9
78536;SHT31;67829;51.968;5.684;2023-12-14T01:19:09;9.1;70.9
78536;SHT31;67829;51.968;5.684;2023-12-14T01:21:38;9.0;70.2
78536;SHT31;67829;51.968;5.684;2023-12-14T01:24:07;9.0;70.8
78536;SHT31;67829;51.968;5.684;2023-12-14T01:26:36;9.0;71.0
78536;SHT31;67829;51.968;5.684;2023-12-14T01:29:04;9.0;71.1
78536;SHT31;67829;51.968;5.684;2023-12-14T01:31:35;9.0;71.5
78536;SHT31;67829;51.968;5.684;2023-12-14T01:34:05;9.0;71.0
78536;SHT31;67829;51.968;5.684;2023-12-14T01:36:34;9.0;71.0
78536;SHT31;67829;51.968;5.684;2023-12-14T01:39:04;9.0;70.6
78536;SHT31;67829;51.968;5.684;2023-12-14T01:41:32;9.0;70.7
78536;SHT31;67829;51.968;5.684;2023-12-14T01:44:01;9.0;71.3
78536;SHT31;67829;51.968;5.684;2023-12-14T01:46:29;9.0;70.9
78536;SHT31;67829;51.968;5.684;2023-12-14T01:48:58;9.0;71.5
78536;SHT31;67829;51.968;5.684;2023-12-14T01:51:26;9.0;71.4
78536;SHT31;67829;51.968;5.684;2023-12-14T01:53:55;9.0;70.9
78536;SHT31;67829;51.968;5.684;2023-12-14T01:56:23;9.0;70.9
78536;SHT31;67829;51.968;5.684;2023-12-14T01:58:51;9.0;71.0
78536;SHT31;67829;51.968;5.684;2023-12-14T02:01:25;8.9;70.8
78536;SHT31;67829;51.968;5.684;2023-12-14T02:03:57;8.9;70.9
78536;SHT31;67829;51.968;5.684;2023-12-14T02:06:25;8.9;71.1
78536;SHT31;67829;51.968;5.684;2023-12-14T02:08:56;8.9;70.4
78536;SHT31;67829;51.968;5.684;2023-12-14T02:11:24;8.9;70.3
78536;SHT31;67829;51.968;5.684;2023-12-14T02:13:53;8.9;70.3
78536;SHT31;67829;51.968;5.684;2023-12-14T02:16:22;8.9;70.4
78536;SHT31;67829;51.968;5.684;2023-12-14T02:18:50;8.9;70.6
78536;SHT31;67829;51.968;5.684;2023-12-14T02:21:18;8.9;70.9
78536;SHT31;67829;51.968;5.684;2023-12-14T02:23:47;8.9;71.0
78536;SHT31;67829;51.968;5.684;2023-12-14T02:26:15;8.9;70.8
78536;SHT31;67829;51.968;5.684;2023-12-14T02:28:44;8.9;70.9
78536;SHT31;67829;51.968;5.684;2023-12-14T02:31:14;8.9;70.8
78536;SHT31;67829;51.968;5.684;2023-12-14T02:33:43;8.9;70.4
78536;SHT31;67829;51.968;5.684;2023-12-14T02:36:13;8.9;70.7
78536;SHT31;67829;51.968;5.684;2023-12-14T02:38:42;8.9;70.0
78536;SHT31;67829;51.968;5.684;2023-12-14T02:41:10;8.9;70.3
78536;SHT31;67829;51.968;5.684;2023-12-14T02:43:39;8.9;69.9
78536;SHT31;67829;51.968;5.684;2023-12-14T02:46:08;8.9;70.0
78536;SHT31;67829;51.968;5.684;2023-12-14T02:48:41;8.9;69.9
78536;SHT31;67829;51.968;5.684;2023-12-14T02:51:12;8.9;69.8
78536;SHT31;67829;51.968;5.684;2023-12-14T02:53:42;8.9;68.9
78536;SHT31;67829;51.968;5.684;2023-12-14T02:56:11;8.9;69.6
78536;SHT31;67829;51.968;5.684;2023-12-14T02:58:39;8.9;69.8
78536;SHT31;67829;51.968;5.684;2023-12-14T03:01:10;8.9;69.1
78536;SHT31;67829;51.968;5.684;2023-12-14T03:03:40;8.9;69.0
78536;SHT31;67829;51.968;5.684;2023-12-14T03:06:08;8.9;68.9
78536;SHT31;67829;51.968;5.684;2023-12-14T03:08:36;8.9;69.0
78536;SHT31;67829;51.968;5.684;2023-12-14T03:11:05;8.9;69.0
78536;SHT31;67829;51.968;5.684;2023-12-14T03:13:34;8.9;68.9
78536;SHT31;67829;51.968;5.684;2023-12-14T03:16:03;8.9;69.4
78536;SHT31;67829;51.968;5.684;2023-12-14T03:18:31;8.8;69.8
78536;SHT31;67829;51.968;5.684;2023-12-14T03:21:00;8.8;69.6
78536;SHT31;67829;51.968;5.684;2023-12-14T03:23:30;8.8;69.4
78536;SHT31;67829;51.968;5.684;2023-12-14T03:25:59;8.8;69.3
78536;SHT31;67829;51.968;5.684;2023-12-14T03:28:27;8.8;68.8
78536;SHT31;67829;51.968;5.684;2023-12-14T03:30:58;8.8;69.2
78536;SHT31;67829;51.968;5.684;2023-12-14T03:33:26;8.8;69.5
78536;SHT31;67829;51.968;5.684;2023-12-14T03:35:54;8.8;69.7
78536;SHT31;67829;51.968;5.684;2023-12-14T03:38:23;8.8;69.7
78536;SHT31;67829;51.968;5.684;2023-12-14T03:40:51;8.8;69.6
78536;SHT31;67829;51.968;5.684;2023-12-14T03:43:20;8.8;69.1
78536;SHT31;67829;51.968;5.684;2023-12-14T03:45:49;8.8;69.1
78536;SHT31;67829;51.968;5.684;2023-12-14T03:48:17;8.8;69.4
78536;SHT31;67829;51.968;5.684;2023-12-14T03:50:45;8.8;69.1
78536;SHT31;67829;51.968;5.684;2023-12-14T03:53:14;8.8;69.5
78536;SHT31;67829;51.968;5.684;2023-12-14T03:55:42;8.8;70.0
78536;SHT31;67829;51.968;5.684;2023-12-14T03:58:12;8.8;69.4
78536;SHT31;67829;51.968;5.684;2023-12-14T04:00:41;8.8;69.4
78536;SHT31;67829;51.968;5.684;2023-12-14T04:03:09;8.8;70.0
78536;SHT31;67829;51.968;5.684;2023-12-14T04:05:38;8.8;70.0
78536;SHT31;67829;51.968;5.684;2023-12-14T04:08:06;8.8;69.9
78536;SHT31;67829;51.968;5.684;2023-12-14T04:10:35;8.9;69.7
78536;SHT31;67829;51.968;5.684;2023-12-14T04:13:04;8.9;69.6
78536;SHT31;67829;51.968;5.684;2023-12-14T04:15:32;8.9;69.3
78536;SHT31;67829;51.968;5.684;2023-12-14T04:18:01;8.9;68.9
78536;SHT31;67829;51.968;5.684;2023-12-14T04:20:29;8.9;69.0
78536;SHT31;67829;51.968;5.684;2023-12-14T04:22:57;8.9;69.2
78536;SHT31;67829;51.968;5.684;2023-12-14T04:25:26;8.8;69.1
78536;SHT31;67829;51.968;5.684;2023-12-14T04:27:55;8.8;69.1
78536;SHT31;67829;51.968;5.684;2023-12-14T04:30:24;8.8;69.2
78536;SHT31;67829;51.968;5.684;2023-12-14T04:32:52;8.8;68.9
78536;SHT31;67829;51.968;5.684;2023-12-14T04:35:21;8.8;69.0
78536;SHT31;67829;51.968;5.684;2023-12-14T04:37:50;8.8;69.2
78536;SHT31;67829;51.968;5.684;2023-12-14T04:40:21;8.8;69.5
78536;SHT31;67829;51.968;5.684;2023-12-14T04:42:49;8.8;69.2
78536;SHT31;67829;51.968;5.684;2023-12-14T04:45:19;8.8;69.0
78536;SHT31;67829;51.968;5.684;2023-12-14T04:47:48;8.8;69.2
78536;SHT31;67829;51.968;5.684;2023-12-14T04:50:16;8.8;69.1
78536;SHT31;67829;51.968;5.684;2023-12-14T04:52:45;8.8;68.9
78536;SHT31;67829;51.968;5.684;2023-12-14T04:55:13;8.7;68.4
78536;SHT31;67829;51.968;5.684;2023-12-14T04:57:42;8.7;68.3
78536;SHT31;67829;51.968;5.684;2023-12-14T05:00:14;8.7;68.4
78536;SHT31;67829;51.968;5.684;2023-12-14T05:02:46;8.7;68.7
78536;SHT31;67829;51.968;5.684;2023-12-14T05:05:15;8.7;68.5
78536;SHT31;67829;51.968;5.684;2023-12-14T05:07:46;8.7;68.3
78536;SHT31;67829;51.968;5.684;2023-12-14T05:10:16;8.7;68.6
78536;SHT31;67829;51.968;5.684;2023-12-14T05:12:45;8.7;68.8
78536;SHT31;67829;51.968;5.684;2023-12-14T05:15:14;8.7;69.0
78536;SHT31;67829;51.968;5.684;2023-12-14T05:17:45;8.7;69.2
78536;SHT31;67829;51.968;5.684;2023-12-14T05:20:13;8.7;68.3
78536;SHT31;67829;51.968;5.684;2023-12-14T05:22:42;8.7;68.4
78536;SHT31;67829;51.968;5.684;2023-12-14T05:25:10;8.7;68.3
78536;SHT31;67829;51.968;5.684;2023-12-14T05:27:39;8.7;68.3
78536;SHT31;67829;51.968;5.684;2023-12-14T05:30:08;8.7;68.7
78536;SHT31;67829;51.968;5.684;2023-12-14T05:32:37;8.7;68.9
78536;SHT31;67829;51.968;5.684;2023-12-14T05:35:07;8.7;68.6
78536;SHT31;67829;51.968;5.684;2023-12-14T05:37:38;8.7;68.6
78536;SHT31;67829;51.968;5.684;2023-12-14T05:40:09;8.7;68.6
78536;SHT31;67829;51.968;5.684;2023-12-14T05:42:38;8.7;68.4
78536;SHT31;67829;51.968;5.684;2023-12-14T05:45:09;8.7;68.2
78536;SHT31;67829;51.968;5.684;2023-12-14T05:47:37;8.7;67.8
78536;SHT31;67829;51.968;5.684;2023-12-14T05:50:08;8.7;67.9
78536;SHT31;67829;51.968;5.684;2023-12-14T05:52:39;8.7;67.2
78536;SHT31;67829;51.968;5.684;2023-12-14T05:55:09;8.7;67.3
78536;SHT31;67829;51.968;5.684;2023-12-14T05:57:38;8.7;67.4
78536;SHT31;67829;51.968;5.684;2023-12-14T06:00:08;8.7;67.7
78536;SHT31;67829;51.968;5.684;2023-12-14T06:02:37;8.7;67.9
78536;SHT31;67829;51.968;5.684;2023-12-14T06:05:07;8.7;67.7
78536;SHT31;67829;51.968;5.684;2023-12-14T06:07:36;8.7;67.6
78536;SHT31;67829;51.968;5.684;2023-12-14T06:10:06;8.6;67.4
78536;SHT31;67829;51.968;5.684;2023-12-14T06:12:35;8.6;67.7
78536;SHT31;67829;51.968;5.684;2023-12-14T06:15:05;8.6;67.9
78536;SHT31;67829;51.968;5.684;2023-12-14T06:17:34;8.6;67.9
78536;SHT31;67829;51.968;5.684;2023-12-14T06:20:04;8.6;68.0
78536;SHT31;67829;51.968;5.684;2023-12-14T06:22:36;8.6;68.2
78536;SHT31;67829;51.968;5.684;2023-12-14T06:25:05;8.6;68.0
78536;SHT31;67829;51.968;5.684;2023-12-14T06:27:34;8.6;67.9
78536;SHT31;67829;51.968;5.684;2023-12-14T06:30:03;8.6;67.8
78536;SHT31;67829;51.968;5.684;2023-12-14T06:32:32;8.6;68.2
78536;SHT31;67829;51.968;5.684;2023-12-14T06:35:00;8.6;67.9
78536;SHT31;67829;51.968;5.684;2023-12-14T06:37:28;8.6;67.7
78536;SHT31;67829;51.968;5.684;2023-12-14T06:39:57;8.6;67.6
78536;SHT31;67829;51.968;5.684;2023-12-14T06:42:26;8.6;67.3
78536;SHT31;67829;51.968;5.684;2023-12-14T06:44:57;8.6;67.0
78536;SHT31;67829;51.968;5.684;2023-12-14T06:47:25;8.6;67.5
78536;SHT31;67829;51.968;5.684;2023-12-14T06:49:54;8.6;67.0
78536;SHT31;67829;51.968;5.684;2023-12-14T06:52:23;8.6;67.3
78536;SHT31;67829;51.968;5.684;2023-12-14T06:54:51;8.6;66.8
78536;SHT31;67829;51.968;5.684;2023-12-14T06:57:20;8.6;66.7
78536;SHT31;67829;51.968;5.684;2023-12-14T06:59:49;8.6;66.8
78536;SHT31;67829;51.968;5.684;2023-12-14T07:02:17;8.6;66.7
78536;SHT31;67829;51.968;5.684;2023-12-14T07:04:47;8.6;66.6
78536;SHT31;67829;51.968;5.684;2023-12-14T07:07:15;8.6;66.0
78536;SHT31;67829;51.968;5.684;2023-12-14T07:09:44;8.5;65.8
78536;SHT31;67829;51.968;5.684;2023-12-14T07:12:13;8.5;65.3
78536;SHT31;67829;51.968;5.684;2023-12-14T07:14:44;8.5;65.3
78536;SHT31;67829;51.968;5.684;2023-12-14T07:17:12;8.5;65.6
78536;SHT31;67829;51.968;5.684;2023-12-14T07:19:41;8.5;66.2
78536;SHT31;67829;51.968;5.684;2023-12-14T07:22:09;8.5;65.8
78536;SHT31;67829;51.968;5.684;2023-12-14T07:24:38;8.5;65.9
78536;SHT31;67829;51.968;5.684;2023-12-14T07:27:06;8.5;65.7
78536;SHT31;67829;51.968;5.684;2023-12-14T07:29:35;8.4;65.6
78536;SHT31;67829;51.968;5.684;2023-12-14T07:32:03;8.4;65.6
78536;SHT31;67829;51.968;5.684;2023-12-14T07:34:32;8.4;65.9
78536;SHT31;67829;51.968;5.684;2023-12-14T07:37:01;8.4;65.8
78536;SHT31;67829;51.968;5.684;2023-12-14T07:39:29;8.4;66.0
78536;SHT31;67829;51.968;5.684;2023-12-14T07:41:58;8.4;66.4
78536;SHT31;67829;51.968;5.684;2023-12-14T07:44:26;8.4;66.1
78536;SHT31;67829;51.968;5.684;2023-12-14T07:46:56;8.4;65.2
78536;SHT31;67829;51.968;5.684;2023-12-14T07:49:25;8.3;64.7
78536;SHT31;67829;51.968;5.684;2023-12-14T07:51:54;8.3;64.6
78536;SHT31;67829;51.968;5.684;2023-12-14T07:54:23;8.3;64.7
78536;SHT31;67829;51.968;5.684;2023-12-14T07:56:53;8.3;64.6
78536;SHT31;67829;51.968;5.684;2023-12-14T07:59:23;8.3;64.8
78536;SHT31;67829;51.968;5.684;2023-12-14T08:01:54;8.3;65.2
78536;SHT31;67829;51.968;5.684;2023-12-14T08:04:22;8.3;65.0
78536;SHT31;67829;51.968;5.684;2023-12-14T08:06:51;8.2;64.7
78536;SHT31;67829;51.968;5.684;2023-12-14T08:09:19;8.2;65.0
78536;SHT31;67829;51.968;5.684;2023-12-14T08:11:48;8.2;65.1
78536;SHT31;67829;51.968;5.684;2023-12-14T08:14:18;8.2;65.1
78536;SHT31;67829;51.968;5.684;2023-12-14T08:16:46;8.2;65.1
78536;SHT31;67829;51.968;5.684;2023-12-14T08:19:15;8.2;65.3
78536;SHT31;67829;51.968;5.684;2023-12-14T08:21:43;8.2;65.2
78536;SHT31;67829;51.968;5.684;2023-12-14T08:24:12;8.2;65.0
78536;SHT31;67829;51.968;5.684;2023-12-14T08:26:40;8.2;64.7
78536;SHT31;67829;51.968;5.684;2023-12-14T08:29:09;8.2;65.1
78536;SHT31;67829;51.968;5.684;2023-12-14T08:31:37;8.2;65.5
78536;SHT31;67829;51.968;5.684;2023-12-14T08:34:05;8.2;65.2
78536;SHT31;67829;51.968;5.684;2023-12-14T08:36:34;8.2;64.7
78536;SHT31;67829;51.968;5.684;2023-12-14T08:39:03;8.2;64.7
78536;SHT31;67829;51.968;5.684;2023-12-14T08:41:31;8.2;64.8
78536;SHT31;67829;51.968;5.684;2023-12-14T08:44:00;8.2;63.9
78536;SHT31;67829;51.968;5.684;2023-12-14T08:46:28;8.2;63.5
78536;SHT31;67829;51.968;5.684;2023-12-14T08:48:56;8.2;63.5
78536;SHT31;67829;51.968;5.684;2023-12-14T08:51:25;8.2;64.1
78536;SHT31;67829;51.968;5.684;2023-12-14T08:53:53;8.2;64.2
78536;SHT31;67829;51.968;5.684;2023-12-14T08:56:22;8.2;64.3
78536;SHT31;67829;51.968;5.684;2023-12-14T08:58:50;8.2;64.5
78536;SHT31;67829;51.968;5.684;2023-12-14T09:01:21;8.2;65.0
78536;SHT31;67829;51.968;5.684;2023-12-14T09:03:50;8.2;64.5
78536;SHT31;67829;51.968;5.684;2023-12-14T09:06:19;8.2;64.6
78536;SHT31;67829;51.968;5.684;2023-12-14T09:08:47;8.2;65.0
78536;SHT31;67829;51.968;5.684;2023-12-14T09:11:16;8.3;65.2
78536;SHT31;67829;51.968;5.684;2023-12-14T09:13:44;8.3;65.1
78536;SHT31;67829;51.968;5.684;2023-12-14T09:16:13;8.3;64.8
78536;SHT31;67829;51.968;5.684;2023-12-14T09:18:41;8.3;64.2
78536;SHT31;67829;51.968;5.684;2023-12-14T09:21:10;8.3;64.7
78536;SHT31;67829;51.968;5.684;2023-12-14T09:23:39;8.3;63.4
78536;SHT31;67829;51.968;5.684;2023-12-14T09:26:08;8.3;63.6
78536;SHT31;67829;51.968;5.684;2023-12-14T09:28:36;8.4;63.8
78536;SHT31;67829;51.968;5.684;2023-12-14T09:31:07;8.4;63.2
78536;SHT31;67829;51.968;5.684;2023-12-14T09:33:36;8.4;62.5
78536;SHT31;67829;51.968;5.684;2023-12-14T09:36:06;8.4;62.9
78536;SHT31;67829;51.968;5.684;2023-12-14T09:38:35;8.4;62.9
78536;SHT31;67829;51.968;5.684;2023-12-14T09:41:05;8.4;62.6
78536;SHT31;67829;51.968;5.684;2023-12-14T09:43:33;8.4;63.3
78536;SHT31;67829;51.968;5.684;2023-12-14T09:46:02;8.4;64.0
78536;SHT31;67829;51.968;5.684;2023-12-14T09:48:31;8.4;64.2
78536;SHT31;67829;51.968;5.684;2023-12-14T09:51:00;8.4;64.3
78536;SHT31;67829;51.968;5.684;2023-12-14T09:53:29;8.4;62.9
78536;SHT31;67829;51.968;5.684;2023-12-14T09:55:57;8.5;63.2
78536;SHT31;67829;51.968;5.684;2023-12-14T09:58:26;8.5;63.4
78536;SHT31;67829;51.968;5.684;2023-12-14T10:00:54;8.5;63.3
78536;SHT31;67829;51.968;5.684;2023-12-14T10:03:25;8.5;63.1
78536;SHT31;67829;51.968;5.684;2023-12-14T10:05:55;8.5;63.0
78536;SHT31;67829;51.968;5.684;2023-12-14T10:08:26;8.5;63.0
78536;SHT31;67829;51.968;5.684;2023-12-14T10:10:55;8.5;63.2
78536;SHT31;67829;51.968;5.684;2023-12-14T10:13:37;8.5;62.8
78536;SHT31;67829;51.968;5.684;2023-12-14T10:16:07;8.5;61.8
78536;SHT31;67829;51.968;5.684;2023-12-14T10:18:37;8.5;62.2
78536;SHT31;67829;51.968;5.684;2023-12-14T10:21:07;8.5;62.9
78536;SHT31;67829;51.968;5.684;2023-12-14T10:23:36;8.5;62.9
78536;SHT31;67829;51.968;5.684;2023-12-14T10:26:06;8.6;63.0
78536;SHT31;67829;51.968;5.684;2023-12-14T10:28:34;8.6;62.9
78536;SHT31;67829;51.968;5.684;2023-12-14T10:31:03;8.6;63.3
78536;SHT31;67829;51.968;5.684;2023-12-14T10:33:32;8.6;62.7
78536;SHT31;67829;51.968;5.684;2023-12-14T10:36:01;8.6;61.9
78536;SHT31;67829;51.968;5.684;2023-12-14T10:38:32;8.6;62.1
78536;SHT31;67829;51.968;5.684;2023-12-14T10:41:03;8.6;62.0
78536;SHT31;67829;51.968;5.684;2023-12-14T10:43:36;8.6;61.7
78536;SHT31;67829;51.968;5.684;2023-12-14T10:46:07;8.6;62.3
78536;SHT31;67829;51.968;5.684;2023-12-14T10:48:39;8.6;62.3
78536;SHT31;67829;51.968;5.684;2023-12-14T10:51:11;8.6;62.4
78536;SHT31;67829;51.968;5.684;2023-12-14T10:53:42;8.6;63.0
78536;SHT31;67829;51.968;5.684;2023-12-14T10:56:14;8.6;63.1
78536;SHT31;67829;51.968;5.684;2023-12-14T10:58:47;8.6;63.3
78536;SHT31;67829;51.968;5.684;2023-12-14T11:01:19;8.6;63.0
78536;SHT31;67829;51.968;5.684;2023-12-14T11:03:48;8.6;62.6
78536;SHT31;67829;51.968;5.684;2023-12-14T11:06:27;8.7;62.3
78536;SHT31;67829;51.968;5.684;2023-12-14T11:09:01;8.7;62.5
78536;SHT31;67829;51.968;5.684;2023-12-14T11:11:43;8.7;62.2
78536;SHT31;67829;51.968;5.684;2023-12-14T11:14:17;8.7;62.6
78536;SHT31;67829;51.968;5.684;2023-12-14T11:16:47;8.7;62.4
78536;SHT31;67829;51.968;5.684;2023-12-14T11:19:26;8.7;63.1
78536;SHT31;67829;51.968;5.684;2023-12-14T11:22:23;8.7;62.6
78536;SHT31;67829;51.968;5.684;2023-12-14T11:24:53;8.7;62.3
78536;SHT31;67829;51.968;5.684;2023-12-14T11:27:29;8.7;62.8
78536;SHT31;67829;51.968;5.684;2023-12-14T11:29:58;8.7;62.8
78536;SHT31;67829;51.968;5.684;2023-12-14T11:32:28;8.7;62.2
78536;SHT31;67829;51.968;5.684;2023-12-14T11:34:57;8.7;63.0
78536;SHT31;67829;51.968;5.684;2023-12-14T11:37:25;8.8;63.6
78536;SHT31;67829;51.968;5.684;2023-12-14T11:39:54;8.8;62.5
78536;SHT31;67829;51.968;5.684;2023-12-14T11:42:22;8.8;62.9
78536;SHT31;67829;51.968;5.684;2023-12-14T11:44:54;8.8;62.7
78536;SHT31;67829;51.968;5.684;2023-12-14T11:47:22;8.8;62.2
78536;SHT31;67829;51.968;5.684;2023-12-14T11:49:50;8.9;62.2
78536;SHT31;67829;51.968;5.684;2023-12-14T11:52:19;8.9;61.9
78536;SHT31;67829;51.968;5.684;2023-12-14T11:54:49;8.9;61.6
78536;SHT31;67829;51.968;5.684;2023-12-14T11:57:18;8.9;61.9
78536;SHT31;67829;51.968;5.684;2023-12-14T11:59:47;8.9;62.1
78536;SHT31;67829;51.968;5.684;2023-12-14T12:02:24;8.9;61.7
78536;SHT31;67829;51.968;5.684;2023-12-14T12:04:53;8.9;61.4
78536;SHT31;67829;51.968;5.684;2023-12-14T12:07:22;8.9;61.7
78536;SHT31;67829;51.968;5.684;2023-12-14T12:09:50;8.9;62.8
78536;SHT31;67829;51.968;5.684;2023-12-14T12:12:19;8.9;62.8
78536;SHT31;67829;51.968;5.684;2023-12-14T12:14:47;8.9;61.8
78536;SHT31;67829;51.968;5.684;2023-12-14T12:17:19;8.9;62.3
78536;SHT31;67829;51.968;5.684;2023-12-14T12:19:48;9.0;62.3
78536;SHT31;67829;51.968;5.684;2023-12-14T12:22:16;9.0;62.9
78536;SHT31;67829;51.968;5.684;2023-12-14T12:24:45;9.0;62.9
78536;SHT31;67829;51.968;5.684;2023-12-14T12:27:13;9.1;61.7
78536;SHT31;67829;51.968;5.684;2023-12-14T12:29:42;9.1;62.2
78536;SHT31;67829;51.968;5.684;2023-12-14T12:32:10;9.1;60.9
78536;SHT31;67829;51.968;5.684;2023-12-14T12:34:39;9.1;61.9
78536;SHT31;67829;51.968;5.684;2023-12-14T12:37:07;9.2;61.7
78536;SHT31;67829;51.968;5.684;2023-12-14T12:39:35;9.2;61.8
78536;SHT31;67829;51.968;5.684;2023-12-14T12:42:05;9.2;61.2
78536;SHT31;67829;51.968;5.684;2023-12-14T12:44:34;9.3;61.5
78536;SHT31;67829;51.968;5.684;2023-12-14T12:47:02;9.3;61.8
78536;SHT31;67829;51.968;5.684;2023-12-14T12:49:32;9.3;61.7
78536;SHT31;67829;51.968;5.684;2023-12-14T12:52:00;9.3;60.9
78536;SHT31;67829;51.968;5.684;2023-12-14T12:54:31;9.3;61.4
78536;SHT31;67829;51.968;5.684;2023-12-14T12:56:59;9.3;61.3
78536;SHT31;67829;51.968;5.684;2023-12-14T12:59:27;9.3;61.4
78536;SHT31;67829;51.968;5.684;2023-12-14T13:01:58;9.3;60.5
78536;SHT31;67829;51.968;5.684;2023-12-14T13:04:26;9.3;60.9
78536;SHT31;67829;51.968;5.684;2023-12-14T13:06:56;9.3;60.2
78536;SHT31;67829;51.968;5.684;2023-12-14T13:09:29;9.3;60.5
78536;SHT31;67829;51.968;5.684;2023-12-14T13:11:57;9.3;60.6
78536;SHT31;67829;51.968;5.684;2023-12-14T13:14:26;9.2;61.4
78536;SHT31;67829;51.968;5.684;2023-12-14T13:16:54;9.2;61.4
78536;SHT31;67829;51.968;5.684;2023-12-14T13:19:24;9.2;61.0
78536;SHT31;67829;51.968;5.684;2023-12-14T13:21:55;9.2;61.2
78536;SHT31;67829;51.968;5.684;2023-12-14T13:24:25;9.2;61.3
78536;SHT31;67829;51.968;5.684;2023-12-14T13:26:54;9.2;61.4
78536;SHT31;67829;51.968;5.684;2023-12-14T13:29:22;9.2;62.2
78536;SHT31;67829;51.968;5.684;2023-12-14T13:31:51;9.2;61.7
78536;SHT31;67829;51.968;5.684;2023-12-14T13:34:19;9.2;61.8
78536;SHT31;67829;51.968;5.684;2023-12-14T13:36:48;9.2;62.0
78536;SHT31;67829;51.968;5.684;2023-12-14T13:39:16;9.2;61.5
78536;SHT31;67829;51.968;5.684;2023-12-14T13:41:46;9.2;61.5
78536;SHT31;67829;51.968;5.684;2023-12-14T13:44:15;9.2;62.1
78536;SHT31;67829;51.968;5.684;2023-12-14T13:46:44;9.2;61.7
78536;SHT31;67829;51.968;5.684;2023-12-14T13:49:13;9.2;61.9
78536;SHT31;67829;51.968;5.684;2023-12-14T13:51:41;9.2;61.7
78536;SHT31;67829;51.968;5.684;2023-12-14T13:54:09;9.2;61.9
78536;SHT31;67829;51.968;5.684;2023-12-14T13:56:39;9.2;61.8
78536;SHT31;67829;51.968;5.684;2023-12-14T13:59:09;9.1;62.0
78536;SHT31;67829;51.968;5.684;2023-12-14T14:01:37;9.1;62.0
78536;SHT31;67829;51.968;5.684;2023-12-14T14:04:06;9.1;62.6
78536;SHT31;67829;51.968;5.684;2023-12-14T14:06:36;9.1;63.4
78536;SHT31;67829;51.968;5.684;2023-12-14T14:09:04;9.1;62.9
78536;SHT31;67829;51.968;5.684;2023-12-14T14:11:34;9.1;63.1
78536;SHT31;67829;51.968;5.684;2023-12-14T14:14:05;9.1;63.2
78536;SHT31;67829;51.968;5.684;2023-12-14T14:16:34;9.1;63.2
78536;SHT31;67829;51.968;5.684;2023-12-14T14:19:03;9.1;63.2
78536;SHT31;67829;51.968;5.684;2023-12-14T14:21:32;9.0;63.6
78536;SHT31;67829;51.968;5.684;2023-12-14T14:24:01;9.0;63.8
78536;SHT31;67829;51.968;5.684;2023-12-14T14:26:29;9.0;63.0
78536;SHT31;67829;51.968;5.684;2023-12-14T14:28:58;9.0;64.0
78536;SHT31;67829;51.968;5.684;2023-12-14T14:31:29;9.0;64.0
78536;SHT31;67829;51.968;5.684;2023-12-14T14:33:59;9.0;64.2
78536;SHT31;67829;51.968;5.684;2023-12-14T14:36:28;9.0;64.0
78536;SHT31;67829;51.968;5.684;2023-12-14T14:38:58;9.0;63.7
78536;SHT31;67829;51.968;5.684;2023-12-14T14:41:26;9.0;63.8
78536;SHT31;67829;51.968;5.684;2023-12-14T14:43:55;9.0;63.6
78536;SHT31;67829;51.968;5.684;2023-12-14T14:46:23;9.0;63.3
78536;SHT31;67829;51.968;5.684;2023-12-14T14:48:52;9.0;63.8
78536;SHT31;67829;51.968;5.684;2023-12-14T14:51:20;9.1;64.2
78536;SHT31;67829;51.968;5.684;2023-12-14T14:53:52;9.1;63.4
78536;SHT31;67829;51.968;5.684;2023-12-14T14:56:20;9.1;63.7
78536;SHT31;67829;51.968;5.684;2023-12-14T14:58:49;9.1;63.8
78536;SHT31;67829;51.968;5.684;2023-12-14T15:01:18;9.1;63.7
78536;SHT31;67829;51.968;5.684;2023-12-14T15:03:47;9.1;63.0
78536;SHT31;67829;51.968;5.684;2023-12-14T15:06:16;9.1;63.6
78536;SHT31;67829;51.968;5.684;2023-12-14T15:08:44;9.1;63.4
78536;SHT31;67829;51.968;5.684;2023-12-14T15:11:13;9.1;63.5
78536;SHT31;67829;51.968;5.684;2023-12-14T15:13:43;9.1;63.3
78536;SHT31;67829;51.968;5.684;2023-12-14T15:16:11;9.1;63.9
78536;SHT31;67829;51.968;5.684;2023-12-14T15:18:40;9.1;63.5
78536;SHT31;67829;51.968;5.684;2023-12-14T15:21:09;9.1;63.7
78536;SHT31;67829;51.968;5.684;2023-12-14T15:23:38;9.1;63.8
78536;SHT31;67829;51.968;5.684;2023-12-14T15:26:08;9.1;64.1
78536;SHT31;67829;51.968;5.684;2023-12-14T15:28:38;9.1;64.0
78536;SHT31;67829;51.968;5.684;2023-12-14T15:31:07;9.1;64.3
78536;SHT31;67829;51.968;5.684;2023-12-14T15:33:36;9.1;64.5
78536;SHT31;67829;51.968;5.684;2023-12-14T15:36:05;9.1;64.4
78536;SHT31;67829;51.968;5.684;2023-12-14T15:38:34;9.1;64.8
78536;SHT31;67829;51.968;5.684;2023-12-14T15:41:03;9.1;65.0
78536;SHT31;67829;51.968;5.684;2023-12-14T15:43:32;9.1;64.6
78536;SHT31;67829;51.968;5.684;2023-12-14T15:46:00;9.1;64.5
78536;SHT31;67829;51.968;5.684;2023-12-14T15:48:29;9.1;64.6
78536;SHT31;67829;51.968;5.684;2023-12-14T15:50:57;9.1;64.5
78536;SHT31;67829;51.968;5.684;2023-12-14T15:53:26;9.1;64.6
78536;SHT31;67829;51.968;5.684;2023-12-14T15:55:54;9.1;65.0
78536;SHT31;67829;51.968;5.684;2023-12-14T15:58:22;9.1;64.6
78536;SHT31;67829;51.968;5.684;2023-12-14T16:00:51;9.1;64.2
78536;SHT31;67829;51.968;5.684;2023-12-14T16:03:20;9.1;64.4
78536;SHT31;67829;51.968;5.684;2023-12-14T16:05:48;9.1;64.6
78536;SHT31;67829;51.968;5.684;2023-12-14T16:08:17;9.1;65.0
78536;SHT31;67829;51.968;5.684;2023-12-14T16:10:45;9.1;64.8
78536;SHT31;67829;51.968;5.684;2023-12-14T16:13:17;9.1;64.8
78536;SHT31;67829;51.968;5.684;2023-12-14T16:15:45;9.1;65.2
78536;SHT31;67829;51.968;5.684;2023-12-14T16:18:14;9.1;65.5
78536;SHT31;67829;51.968;5.684;2023-12-14T16:20:42;9.1;65.5
78536;SHT31;67829;51.968;5.684;2023-12-14T16:23:13;9.1;65.8
78536;SHT31;67829;51.968;5.684;2023-12-14T16:25:41;9.1;65.6
78536;SHT31;67829;51.968;5.684;2023-12-14T16:28:10;9.1;65.7
78536;SHT31;67829;51.968;5.684;2023-12-14T16:30:38;9.1;65.8